sensor_id;sensor_type;location;lat;lon;timestamp;P1;durP1;ratioP1;P2;durP2;ratioP2
78224;SDS011;67498;53.650;10.090;2023-03-01T00:01:58;7.03;;;2.10;;
78224;SDS011;67498;53.650;10.090;2023-03-01T00:04:23;5.73;;;1.73;;
78224;SDS011;67498;53.650;10.090;2023-03-01T00:06:48;4.67;;;1.50;;
78224;SDS011;67498;53.650;10.090;2023-03-01T00:09:14;4.90;;;1.57;;
78224;SDS011;67498;53.650;10.090;2023-03-01T00:11:40;6.25;;;2.60;;
78224;SDS011;67498;53.650;10.090;2023-03-01T00:14:05;5.97;;;1.47;;
78224;SDS011;67498;53.650;10.090;2023-03-01T00:16:32;4.18;;;1.77;;
78224;SDS011;67498;53.650;10.090;2023-03-01T00:19:01;6.95;;;2.25;;
78224;SDS011;67498;53.650;10.090;2023-03-01T00:21:26;5.97;;;3.03;;
78224;SDS011;67498;53.650;10.090;2023-03-01T00:23:51;5.07;;;2.00;;
78224;SDS011;67498;53.650;10.090;2023-03-01T00:26:17;7.17;;;2.40;;
78224;SDS011;67498;53.650;10.090;2023-03-01T00:28:43;3.65;;;1.60;;
78224;SDS011;67498;53.650;10.090;2023-03-01T00:31:10;5.43;;;2.30;;
78224;SDS011;67498;53.650;10.090;2023-03-01T00:33:35;6.55;;;2.08;;
78224;SDS011;67498;53.650;10.090;2023-03-01T00:36:01;9.03;;;2.43;;
78224;SDS011;67498;53.650;10.090;2023-03-01T00:38:26;5.70;;;1.92;;
78224;SDS011;67498;53.650;10.090;2023-03-01T00:40:51;4.83;;;2.17;;
78224;SDS011;67498;53.650;10.090;2023-03-01T00:43:17;8.67;;;2.47;;
78224;SDS011;67498;53.650;10.090;2023-03-01T00:45:42;5.22;;;1.98;;
78224;SDS011;67498;53.650;10.090;2023-03-01T00:48:07;5.03;;;2.07;;
78224;SDS011;67498;53.650;10.090;2023-03-01T00:50:32;4.37;;;1.77;;
78224;SDS011;67498;53.650;10.090;2023-03-01T00:52:57;4.80;;;1.73;;
78224;SDS011;67498;53.650;10.090;2023-03-01T00:55:23;5.23;;;1.80;;
78224;SDS011;67498;53.650;10.090;2023-03-01T00:57:48;6.22;;;1.65;;
78224;SDS011;67498;53.650;10.090;2023-03-01T01:00:14;4.33;;;1.43;;
78224;SDS011;67498;53.650;10.090;2023-03-01T01:02:39;5.23;;;1.57;;
78224;SDS011;67498;53.650;10.090;2023-03-01T01:05:04;9.27;;;1.80;;
78224;SDS011;67498;53.650;10.090;2023-03-01T01:07:29;5.40;;;2.23;;
78224;SDS011;67498;53.650;10.090;2023-03-01T01:09:55;4.40;;;1.40;;
78224;SDS011;67498;53.650;10.090;2023-03-01T01:12:20;6.40;;;1.93;;
78224;SDS011;67498;53.650;10.090;2023-03-01T01:14:45;4.03;;;1.53;;
78224;SDS011;67498;53.650;10.090;2023-03-01T01:17:11;5.65;;;1.65;;
78224;SDS011;67498;53.650;10.090;2023-03-01T01:19:36;6.53;;;2.10;;
78224;SDS011;67498;53.650;10.090;2023-03-01T01:22:01;5.90;;;2.07;;
78224;SDS011;67498;53.650;10.090;2023-03-01T01:24:27;5.90;;;1.70;;
78224;SDS011;67498;53.650;10.090;2023-03-01T01:26:52;3.40;;;1.00;;
78224;SDS011;67498;53.650;10.090;2023-03-01T01:29:17;2.67;;;1.03;;
78224;SDS011;67498;53.650;10.090;2023-03-01T01:31:42;2.50;;;0.87;;
78224;SDS011;67498;53.650;10.090;2023-03-01T01:34:08;4.07;;;1.23;;
78224;SDS011;67498;53.650;10.090;2023-03-01T01:36:37;3.80;;;1.42;;
78224;SDS011;67498;53.650;10.090;2023-03-01T01:39:02;3.50;;;1.17;;
78224;SDS011;67498;53.650;10.090;2023-03-01T01:41:28;3.53;;;1.03;;
78224;SDS011;67498;53.650;10.090;2023-03-01T01:46:53;6.00;;;2.00;;
78224;SDS011;67498;53.650;10.090;2023-03-01T01:49:23;4.32;;;1.42;;
78224;SDS011;67498;53.650;10.090;2023-03-01T01:51:49;4.72;;;1.92;;
78224;SDS011;67498;53.650;10.090;2023-03-01T01:54:19;6.53;;;2.03;;
78224;SDS011;67498;53.650;10.090;2023-03-01T01:56:48;10.50;;;2.75;;
78224;SDS011;67498;53.650;10.090;2023-03-01T01:59:14;4.22;;;1.55;;
78224;SDS011;67498;53.650;10.090;2023-03-01T02:01:39;7.70;;;1.77;;
78224;SDS011;67498;53.650;10.090;2023-03-01T02:04:05;9.00;;;2.73;;
78224;SDS011;67498;53.650;10.090;2023-03-01T02:06:33;5.68;;;2.45;;
78224;SDS011;67498;53.650;10.090;2023-03-01T02:09:00;4.32;;;1.77;;
78224;SDS011;67498;53.650;10.090;2023-03-01T02:11:26;6.23;;;2.03;;
78224;SDS011;67498;53.650;10.090;2023-03-01T02:13:52;6.30;;;1.52;;
78224;SDS011;67498;53.650;10.090;2023-03-01T02:16:18;5.75;;;2.63;;
78224;SDS011;67498;53.650;10.090;2023-03-01T02:18:43;3.30;;;1.50;;
78224;SDS011;67498;53.650;10.090;2023-03-01T02:21:24;6.10;;;3.08;;
78224;SDS011;67498;53.650;10.090;2023-03-01T02:23:51;6.35;;;1.70;;
78224;SDS011;67498;53.650;10.090;2023-03-01T02:26:20;7.80;;;1.58;;
78224;SDS011;67498;53.650;10.090;2023-03-01T02:28:47;7.53;;;1.87;;
78224;SDS011;67498;53.650;10.090;2023-03-01T02:31:14;9.80;;;3.97;;
78224;SDS011;67498;53.650;10.090;2023-03-01T02:34:00;5.50;;;2.70;;
78224;SDS011;67498;53.650;10.090;2023-03-01T02:36:30;8.03;;;3.00;;
78224;SDS011;67498;53.650;10.090;2023-03-01T02:38:57;7.00;;;2.63;;
78224;SDS011;67498;53.650;10.090;2023-03-01T02:41:22;7.60;;;2.88;;
78224;SDS011;67498;53.650;10.090;2023-03-01T02:43:49;6.70;;;2.58;;
78224;SDS011;67498;53.650;10.090;2023-03-01T02:46:18;5.80;;;2.03;;
78224;SDS011;67498;53.650;10.090;2023-03-01T02:48:46;6.97;;;2.70;;
78224;SDS011;67498;53.650;10.090;2023-03-01T02:56:02;5.40;;;2.37;;
78224;SDS011;67498;53.650;10.090;2023-03-01T02:58:27;6.90;;;2.63;;
78224;SDS011;67498;53.650;10.090;2023-03-01T03:00:52;6.23;;;3.73;;
78224;SDS011;67498;53.650;10.090;2023-03-01T03:03:19;5.87;;;2.37;;
78224;SDS011;67498;53.650;10.090;2023-03-01T03:05:44;5.68;;;2.45;;
78224;SDS011;67498;53.650;10.090;2023-03-01T03:08:09;11.00;;;3.07;;
78224;SDS011;67498;53.650;10.090;2023-03-01T03:10:37;3.45;;;0.98;;
78224;SDS011;67498;53.650;10.090;2023-03-01T03:13:05;7.50;;;2.83;;
78224;SDS011;67498;53.650;10.090;2023-03-01T03:15:31;5.60;;;1.63;;
78224;SDS011;67498;53.650;10.090;2023-03-01T03:17:56;6.63;;;2.77;;
78224;SDS011;67498;53.650;10.090;2023-03-01T03:20:23;4.70;;;2.13;;
78224;SDS011;67498;53.650;10.090;2023-03-01T03:22:50;4.05;;;1.33;;
78224;SDS011;67498;53.650;10.090;2023-03-01T03:25:16;4.22;;;1.15;;
78224;SDS011;67498;53.650;10.090;2023-03-01T03:27:42;3.92;;;1.05;;
78224;SDS011;67498;53.650;10.090;2023-03-01T03:30:09;4.07;;;1.03;;
78224;SDS011;67498;53.650;10.090;2023-03-01T03:32:36;4.97;;;2.17;;
78224;SDS011;67498;53.650;10.090;2023-03-01T03:35:03;5.50;;;2.37;;
78224;SDS011;67498;53.650;10.090;2023-03-01T03:37:34;6.38;;;1.63;;
78224;SDS011;67498;53.650;10.090;2023-03-01T03:40:18;7.82;;;2.42;;
78224;SDS011;67498;53.650;10.090;2023-03-01T03:42:43;5.77;;;2.00;;
78224;SDS011;67498;53.650;10.090;2023-03-01T03:45:08;3.22;;;1.27;;
78224;SDS011;67498;53.650;10.090;2023-03-01T03:47:33;6.60;;;1.80;;
78224;SDS011;67498;53.650;10.090;2023-03-01T03:49:59;3.63;;;1.02;;
78224;SDS011;67498;53.650;10.090;2023-03-01T03:52:24;3.88;;;1.40;;
78224;SDS011;67498;53.650;10.090;2023-03-01T03:54:49;12.23;;;1.98;;
78224;SDS011;67498;53.650;10.090;2023-03-01T03:57:14;3.45;;;1.45;;
78224;SDS011;67498;53.650;10.090;2023-03-01T03:59:39;4.80;;;1.73;;
78224;SDS011;67498;53.650;10.090;2023-03-01T04:02:04;4.83;;;1.57;;
78224;SDS011;67498;53.650;10.090;2023-03-01T04:04:30;5.97;;;1.50;;
78224;SDS011;67498;53.650;10.090;2023-03-01T04:06:55;10.27;;;1.60;;
78224;SDS011;67498;53.650;10.090;2023-03-01T04:09:20;3.40;;;1.52;;
78224;SDS011;67498;53.650;10.090;2023-03-01T04:11:46;4.40;;;1.52;;
78224;SDS011;67498;53.650;10.090;2023-03-01T04:14:11;4.57;;;1.63;;
78224;SDS011;67498;53.650;10.090;2023-03-01T04:16:36;8.40;;;1.60;;
78224;SDS011;67498;53.650;10.090;2023-03-01T04:19:01;4.20;;;1.50;;
78224;SDS011;67498;53.650;10.090;2023-03-01T04:21:26;7.50;;;1.35;;
78224;SDS011;67498;53.650;10.090;2023-03-01T04:23:52;6.33;;;1.57;;
78224;SDS011;67498;53.650;10.090;2023-03-01T04:26:17;4.13;;;1.63;;
78224;SDS011;67498;53.650;10.090;2023-03-01T04:28:43;3.87;;;1.50;;
78224;SDS011;67498;53.650;10.090;2023-03-01T04:31:11;4.10;;;1.70;;
78224;SDS011;67498;53.650;10.090;2023-03-01T04:33:51;10.48;;;2.58;;
78224;SDS011;67498;53.650;10.090;2023-03-01T04:36:17;4.30;;;1.45;;
78224;SDS011;67498;53.650;10.090;2023-03-01T04:38:42;7.37;;;1.63;;
78224;SDS011;67498;53.650;10.090;2023-03-01T04:41:12;5.78;;;2.95;;
78224;SDS011;67498;53.650;10.090;2023-03-01T04:43:38;6.22;;;2.03;;
78224;SDS011;67498;53.650;10.090;2023-03-01T04:46:07;5.63;;;1.50;;
78224;SDS011;67498;53.650;10.090;2023-03-01T04:48:34;4.80;;;1.58;;
78224;SDS011;67498;53.650;10.090;2023-03-01T04:51:00;5.17;;;1.67;;
78224;SDS011;67498;53.650;10.090;2023-03-01T04:53:25;12.10;;;2.30;;
78224;SDS011;67498;53.650;10.090;2023-03-01T04:55:51;4.50;;;1.50;;
78224;SDS011;67498;53.650;10.090;2023-03-01T04:58:16;14.53;;;2.20;;
78224;SDS011;67498;53.650;10.090;2023-03-01T05:00:41;3.40;;;1.30;;
78224;SDS011;67498;53.650;10.090;2023-03-01T05:03:07;7.10;;;2.37;;
78224;SDS011;67498;53.650;10.090;2023-03-01T05:05:33;4.13;;;1.48;;
78224;SDS011;67498;53.650;10.090;2023-03-01T05:08:00;4.63;;;1.33;;
78224;SDS011;67498;53.650;10.090;2023-03-01T05:10:26;3.20;;;1.38;;
78224;SDS011;67498;53.650;10.090;2023-03-01T05:12:51;9.95;;;2.35;;
78224;SDS011;67498;53.650;10.090;2023-03-01T05:15:19;5.35;;;1.83;;
78224;SDS011;67498;53.650;10.090;2023-03-01T05:17:46;5.77;;;1.63;;
78224;SDS011;67498;53.650;10.090;2023-03-01T05:20:11;5.57;;;1.97;;
78224;SDS011;67498;53.650;10.090;2023-03-01T05:22:37;4.73;;;1.30;;
78224;SDS011;67498;53.650;10.090;2023-03-01T05:25:02;4.27;;;1.90;;
78224;SDS011;67498;53.650;10.090;2023-03-01T05:27:27;5.22;;;2.13;;
78224;SDS011;67498;53.650;10.090;2023-03-01T05:29:54;5.65;;;2.28;;
78224;SDS011;67498;53.650;10.090;2023-03-01T05:32:19;5.37;;;1.83;;
78224;SDS011;67498;53.650;10.090;2023-03-01T05:34:44;4.17;;;1.37;;
78224;SDS011;67498;53.650;10.090;2023-03-01T05:37:11;4.93;;;1.30;;
78224;SDS011;67498;53.650;10.090;2023-03-01T05:39:36;7.30;;;3.43;;
78224;SDS011;67498;53.650;10.090;2023-03-01T05:42:01;4.00;;;1.17;;
78224;SDS011;67498;53.650;10.090;2023-03-01T05:44:27;3.13;;;1.00;;
78224;SDS011;67498;53.650;10.090;2023-03-01T05:46:53;4.20;;;1.23;;
78224;SDS011;67498;53.650;10.090;2023-03-01T05:49:18;4.95;;;1.52;;
78224;SDS011;67498;53.650;10.090;2023-03-01T05:51:47;3.40;;;1.27;;
78224;SDS011;67498;53.650;10.090;2023-03-01T05:54:13;4.90;;;1.23;;
78224;SDS011;67498;53.650;10.090;2023-03-01T05:56:38;5.27;;;2.40;;
78224;SDS011;67498;53.650;10.090;2023-03-01T05:59:04;4.05;;;1.45;;
78224;SDS011;67498;53.650;10.090;2023-03-01T06:01:30;4.13;;;1.35;;
78224;SDS011;67498;53.650;10.090;2023-03-01T06:03:55;4.33;;;1.77;;
78224;SDS011;67498;53.650;10.090;2023-03-01T06:06:21;4.78;;;1.75;;
78224;SDS011;67498;53.650;10.090;2023-03-01T06:08:46;3.87;;;1.17;;
78224;SDS011;67498;53.650;10.090;2023-03-01T06:11:12;2.67;;;0.70;;
78224;SDS011;67498;53.650;10.090;2023-03-01T06:13:37;6.93;;;1.23;;
78224;SDS011;67498;53.650;10.090;2023-03-01T06:16:05;5.13;;;2.03;;
78224;SDS011;67498;53.650;10.090;2023-03-01T06:18:31;5.75;;;1.83;;
78224;SDS011;67498;53.650;10.090;2023-03-01T06:20:56;3.50;;;0.97;;
78224;SDS011;67498;53.650;10.090;2023-03-01T06:23:22;3.27;;;1.07;;
78224;SDS011;67498;53.650;10.090;2023-03-01T06:25:47;4.55;;;1.80;;
78224;SDS011;67498;53.650;10.090;2023-03-01T06:28:13;4.23;;;1.67;;
78224;SDS011;67498;53.650;10.090;2023-03-01T06:30:38;4.80;;;2.27;;
78224;SDS011;67498;53.650;10.090;2023-03-01T06:33:03;4.67;;;1.67;;
78224;SDS011;67498;53.650;10.090;2023-03-01T06:35:28;3.87;;;1.23;;
78224;SDS011;67498;53.650;10.090;2023-03-01T06:37:55;5.53;;;2.45;;
78224;SDS011;67498;53.650;10.090;2023-03-01T06:40:20;5.27;;;2.03;;
78224;SDS011;67498;53.650;10.090;2023-03-01T06:42:47;3.78;;;1.50;;
78224;SDS011;67498;53.650;10.090;2023-03-01T06:45:14;4.70;;;1.50;;
78224;SDS011;67498;53.650;10.090;2023-03-01T06:47:39;6.38;;;1.77;;
78224;SDS011;67498;53.650;10.090;2023-03-01T06:50:04;4.45;;;1.30;;
78224;SDS011;67498;53.650;10.090;2023-03-01T06:52:30;4.07;;;1.00;;
78224;SDS011;67498;53.650;10.090;2023-03-01T06:54:55;4.70;;;1.60;;
78224;SDS011;67498;53.650;10.090;2023-03-01T06:57:20;5.32;;;1.33;;
78224;SDS011;67498;53.650;10.090;2023-03-01T06:59:46;5.93;;;1.27;;
78224;SDS011;67498;53.650;10.090;2023-03-01T07:02:11;6.00;;;2.28;;
78224;SDS011;67498;53.650;10.090;2023-03-01T07:04:37;7.10;;;1.93;;
78224;SDS011;67498;53.650;10.090;2023-03-01T07:07:02;6.27;;;1.50;;
78224;SDS011;67498;53.650;10.090;2023-03-01T07:09:27;3.87;;;1.57;;
78224;SDS011;67498;53.650;10.090;2023-03-01T07:11:52;5.90;;;1.67;;
78224;SDS011;67498;53.650;10.090;2023-03-01T07:14:18;5.23;;;1.90;;
78224;SDS011;67498;53.650;10.090;2023-03-01T07:16:44;4.13;;;1.48;;
78224;SDS011;67498;53.650;10.090;2023-03-01T07:19:09;3.17;;;1.13;;
78224;SDS011;67498;53.650;10.090;2023-03-01T07:21:34;7.65;;;1.65;;
78224;SDS011;67498;53.650;10.090;2023-03-01T07:24:00;4.30;;;1.60;;
78224;SDS011;67498;53.650;10.090;2023-03-01T07:26:25;6.20;;;2.10;;
78224;SDS011;67498;53.650;10.090;2023-03-01T07:28:50;9.25;;;2.92;;
78224;SDS011;67498;53.650;10.090;2023-03-01T07:31:15;4.23;;;1.73;;
78224;SDS011;67498;53.650;10.090;2023-03-01T07:33:41;3.67;;;1.52;;
78224;SDS011;67498;53.650;10.090;2023-03-01T07:36:06;4.90;;;1.65;;
78224;SDS011;67498;53.650;10.090;2023-03-01T07:38:31;8.17;;;1.97;;
78224;SDS011;67498;53.650;10.090;2023-03-01T07:40:57;6.50;;;2.77;;
78224;SDS011;67498;53.650;10.090;2023-03-01T07:43:23;4.70;;;1.95;;
78224;SDS011;67498;53.650;10.090;2023-03-01T07:45:48;9.27;;;2.30;;
78224;SDS011;67498;53.650;10.090;2023-03-01T07:48:14;7.00;;;2.30;;
78224;SDS011;67498;53.650;10.090;2023-03-01T07:50:39;4.53;;;1.80;;
78224;SDS011;67498;53.650;10.090;2023-03-01T07:53:04;6.37;;;2.23;;
78224;SDS011;67498;53.650;10.090;2023-03-01T07:55:29;6.97;;;2.70;;
78224;SDS011;67498;53.650;10.090;2023-03-01T07:57:54;6.53;;;3.40;;
78224;SDS011;67498;53.650;10.090;2023-03-01T08:00:20;17.20;;;3.33;;
78224;SDS011;67498;53.650;10.090;2023-03-01T08:02:45;6.57;;;2.63;;
78224;SDS011;67498;53.650;10.090;2023-03-01T08:05:10;11.25;;;3.13;;
78224;SDS011;67498;53.650;10.090;2023-03-01T08:07:36;6.00;;;2.13;;
78224;SDS011;67498;53.650;10.090;2023-03-01T08:10:01;6.40;;;2.30;;
78224;SDS011;67498;53.650;10.090;2023-03-01T08:12:26;9.77;;;3.53;;
78224;SDS011;67498;53.650;10.090;2023-03-01T08:14:53;7.30;;;2.43;;
78224;SDS011;67498;53.650;10.090;2023-03-01T08:17:18;6.10;;;1.57;;
78224;SDS011;67498;53.650;10.090;2023-03-01T08:19:43;6.27;;;2.40;;
78224;SDS011;67498;53.650;10.090;2023-03-01T08:22:08;8.90;;;3.50;;
78224;SDS011;67498;53.650;10.090;2023-03-01T08:24:33;9.60;;;2.50;;
78224;SDS011;67498;53.650;10.090;2023-03-01T08:26:58;10.97;;;3.20;;
78224;SDS011;67498;53.650;10.090;2023-03-01T08:29:24;9.00;;;2.67;;
78224;SDS011;67498;53.650;10.090;2023-03-01T08:31:50;8.40;;;3.38;;
78224;SDS011;67498;53.650;10.090;2023-03-01T08:34:16;6.30;;;2.87;;
78224;SDS011;67498;53.650;10.090;2023-03-01T08:36:42;7.80;;;2.88;;
78224;SDS011;67498;53.650;10.090;2023-03-01T08:39:08;7.72;;;3.15;;
78224;SDS011;67498;53.650;10.090;2023-03-01T08:41:34;6.63;;;2.77;;
78224;SDS011;67498;53.650;10.090;2023-03-01T08:43:59;9.75;;;4.15;;
78224;SDS011;67498;53.650;10.090;2023-03-01T08:46:28;12.50;;;4.30;;
78224;SDS011;67498;53.650;10.090;2023-03-01T08:48:53;8.25;;;2.92;;
78224;SDS011;67498;53.650;10.090;2023-03-01T08:51:19;7.73;;;3.80;;
78224;SDS011;67498;53.650;10.090;2023-03-01T08:53:44;6.27;;;2.93;;
78224;SDS011;67498;53.650;10.090;2023-03-01T08:56:09;8.83;;;3.90;;
78224;SDS011;67498;53.650;10.090;2023-03-01T08:58:35;6.97;;;3.03;;
78224;SDS011;67498;53.650;10.090;2023-03-01T09:01:00;10.20;;;3.37;;
78224;SDS011;67498;53.650;10.090;2023-03-01T09:03:26;8.43;;;3.07;;
78224;SDS011;67498;53.650;10.090;2023-03-01T09:05:52;8.18;;;3.13;;
78224;SDS011;67498;53.650;10.090;2023-03-01T09:08:17;8.77;;;3.47;;
78224;SDS011;67498;53.650;10.090;2023-03-01T09:10:42;5.63;;;2.60;;
78224;SDS011;67498;53.650;10.090;2023-03-01T09:13:08;7.67;;;2.87;;
78224;SDS011;67498;53.650;10.090;2023-03-01T09:15:33;7.47;;;2.73;;
78224;SDS011;67498;53.650;10.090;2023-03-01T09:17:59;8.70;;;3.60;;
78224;SDS011;67498;53.650;10.090;2023-03-01T09:20:24;7.20;;;3.60;;
78224;SDS011;67498;53.650;10.090;2023-03-01T09:22:49;8.67;;;3.37;;
78224;SDS011;67498;53.650;10.090;2023-03-01T09:25:14;8.37;;;2.83;;
78224;SDS011;67498;53.650;10.090;2023-03-01T09:27:39;4.53;;;1.83;;
78224;SDS011;67498;53.650;10.090;2023-03-01T09:30:05;8.87;;;3.27;;
78224;SDS011;67498;53.650;10.090;2023-03-01T09:32:30;11.50;;;4.20;;
78224;SDS011;67498;53.650;10.090;2023-03-01T09:34:56;8.43;;;3.90;;
78224;SDS011;67498;53.650;10.090;2023-03-01T09:37:29;10.37;;;3.63;;
78224;SDS011;67498;53.650;10.090;2023-03-01T09:39:54;7.22;;;2.88;;
78224;SDS011;67498;53.650;10.090;2023-03-01T09:42:20;9.93;;;3.50;;
78224;SDS011;67498;53.650;10.090;2023-03-01T09:44:47;12.93;;;2.83;;
78224;SDS011;67498;53.650;10.090;2023-03-01T09:50:11;6.95;;;3.38;;
78224;SDS011;67498;53.650;10.090;2023-03-01T09:52:41;6.77;;;2.70;;
78224;SDS011;67498;53.650;10.090;2023-03-01T09:55:14;9.05;;;3.00;;
78224;SDS011;67498;53.650;10.090;2023-03-01T09:57:48;8.57;;;3.45;;
78224;SDS011;67498;53.650;10.090;2023-03-01T10:02:43;9.73;;;3.10;;
78224;SDS011;67498;53.650;10.090;2023-03-01T10:10:37;6.13;;;2.55;;
78224;SDS011;67498;53.650;10.090;2023-03-01T10:13:05;9.82;;;3.63;;
78224;SDS011;67498;53.650;10.090;2023-03-01T10:15:39;7.50;;;2.67;;
78224;SDS011;67498;53.650;10.090;2023-03-01T10:18:06;8.70;;;2.83;;
78224;SDS011;67498;53.650;10.090;2023-03-01T10:23:15;8.70;;;3.88;;
78224;SDS011;67498;53.650;10.090;2023-03-01T10:28:16;11.10;;;3.60;;
78224;SDS011;67498;53.650;10.090;2023-03-01T10:30:42;7.95;;;2.67;;
78224;SDS011;67498;53.650;10.090;2023-03-01T10:33:30;8.50;;;3.30;;
78224;SDS011;67498;53.650;10.090;2023-03-01T10:35:54;9.07;;;3.67;;
78224;SDS011;67498;53.650;10.090;2023-03-01T10:38:19;7.65;;;2.80;;
78224;SDS011;67498;53.650;10.090;2023-03-01T10:43:16;7.65;;;2.45;;
78224;SDS011;67498;53.650;10.090;2023-03-01T10:45:41;12.27;;;2.97;;
78224;SDS011;67498;53.650;10.090;2023-03-01T10:50:36;8.25;;;2.67;;
78224;SDS011;67498;53.650;10.090;2023-03-01T10:53:03;8.40;;;2.53;;
78224;SDS011;67498;53.650;10.090;2023-03-01T10:55:31;9.30;;;2.87;;
78224;SDS011;67498;53.650;10.090;2023-03-01T11:00:57;7.90;;;2.67;;
78224;SDS011;67498;53.650;10.090;2023-03-01T11:03:25;6.00;;;2.33;;
78224;SDS011;67498;53.650;10.090;2023-03-01T11:05:58;9.05;;;2.33;;
78224;SDS011;67498;53.650;10.090;2023-03-01T11:08:30;6.27;;;2.50;;
78224;SDS011;67498;53.650;10.090;2023-03-01T11:13:36;6.82;;;2.17;;
78224;SDS011;67498;53.650;10.090;2023-03-01T11:16:07;12.02;;;2.85;;
78224;SDS011;67498;53.650;10.090;2023-03-01T11:18:34;6.97;;;2.45;;
78224;SDS011;67498;53.650;10.090;2023-03-01T11:21:00;6.97;;;2.10;;
78224;SDS011;67498;53.650;10.090;2023-03-01T11:23:27;8.57;;;2.77;;
78224;SDS011;67498;53.650;10.090;2023-03-01T11:26:01;8.50;;;3.55;;
78224;SDS011;67498;53.650;10.090;2023-03-01T11:28:28;6.90;;;2.65;;
78224;SDS011;67498;53.650;10.090;2023-03-01T11:35:49;11.23;;;2.40;;
78224;SDS011;67498;53.650;10.090;2023-03-01T11:40:55;8.70;;;2.53;;
78224;SDS011;67498;53.650;10.090;2023-03-01T11:43:28;8.37;;;1.93;;
78224;SDS011;67498;53.650;10.090;2023-03-01T11:48:46;5.22;;;2.13;;
78224;SDS011;67498;53.650;10.090;2023-03-01T11:56:47;5.63;;;2.00;;
78224;SDS011;67498;53.650;10.090;2023-03-01T11:59:19;7.10;;;2.50;;
78224;SDS011;67498;53.650;10.090;2023-03-01T12:01:51;9.18;;;2.15;;
78224;SDS011;67498;53.650;10.090;2023-03-01T12:04:34;7.30;;;2.28;;
78224;SDS011;67498;53.650;10.090;2023-03-01T12:11:55;5.67;;;2.43;;
78224;SDS011;67498;53.650;10.090;2023-03-01T12:14:40;5.78;;;1.90;;
78224;SDS011;67498;53.650;10.090;2023-03-01T12:17:22;7.30;;;1.55;;
78224;SDS011;67498;53.650;10.090;2023-03-01T12:19:53;5.85;;;2.00;;
78224;SDS011;67498;53.650;10.090;2023-03-01T12:22:26;8.07;;;1.95;;
78224;SDS011;67498;53.650;10.090;2023-03-01T12:38:37;5.57;;;1.53;;
78224;SDS011;67498;53.650;10.090;2023-03-01T12:44:01;5.32;;;1.90;;
78224;SDS011;67498;53.650;10.090;2023-03-01T12:46:36;5.75;;;1.70;;
78224;SDS011;67498;53.650;10.090;2023-03-01T12:49:08;5.63;;;1.88;;
78224;SDS011;67498;53.650;10.090;2023-03-01T12:51:36;7.33;;;1.63;;
78224;SDS011;67498;53.650;10.090;2023-03-01T12:54:05;3.95;;;1.17;;
78224;SDS011;67498;53.650;10.090;2023-03-01T12:56:31;6.85;;;1.58;;
78224;SDS011;67498;53.650;10.090;2023-03-01T12:59:02;4.47;;;1.38;;
78224;SDS011;67498;53.650;10.090;2023-03-01T13:07:25;3.80;;;0.90;;
78224;SDS011;67498;53.650;10.090;2023-03-01T13:17:47;3.87;;;1.10;;
78224;SDS011;67498;53.650;10.090;2023-03-01T13:20:14;5.35;;;1.25;;
78224;SDS011;67498;53.650;10.090;2023-03-01T13:22:40;3.50;;;0.80;;
78224;SDS011;67498;53.650;10.090;2023-03-01T13:25:12;5.80;;;1.33;;
78224;SDS011;67498;53.650;10.090;2023-03-01T13:27:38;6.63;;;1.33;;
78224;SDS011;67498;53.650;10.090;2023-03-01T13:30:03;3.50;;;1.10;;
78224;SDS011;67498;53.650;10.090;2023-03-01T13:32:31;5.30;;;1.73;;
78224;SDS011;67498;53.650;10.090;2023-03-01T13:37:27;8.23;;;1.30;;
78224;SDS011;67498;53.650;10.090;2023-03-01T13:39:54;4.70;;;1.10;;
78224;SDS011;67498;53.650;10.090;2023-03-01T13:42:39;9.18;;;1.02;;
78224;SDS011;67498;53.650;10.090;2023-03-01T13:45:24;5.10;;;1.58;;
78224;SDS011;67498;53.650;10.090;2023-03-01T13:47:54;5.17;;;1.50;;
78224;SDS011;67498;53.650;10.090;2023-03-01T13:50:23;5.57;;;1.38;;
78224;SDS011;67498;53.650;10.090;2023-03-01T13:52:56;8.15;;;1.80;;
78224;SDS011;67498;53.650;10.090;2023-03-01T13:55:30;5.03;;;1.15;;
78224;SDS011;67498;53.650;10.090;2023-03-01T13:57:57;4.88;;;1.75;;
78224;SDS011;67498;53.650;10.090;2023-03-01T14:02:58;7.15;;;2.38;;
78224;SDS011;67498;53.650;10.090;2023-03-01T14:05:24;6.00;;;1.60;;
78224;SDS011;67498;53.650;10.090;2023-03-01T14:07:50;4.87;;;1.40;;
78224;SDS011;67498;53.650;10.090;2023-03-01T14:10:16;5.50;;;1.33;;
78224;SDS011;67498;53.650;10.090;2023-03-01T14:12:50;4.55;;;1.30;;
78224;SDS011;67498;53.650;10.090;2023-03-01T14:20:30;7.47;;;2.13;;
78224;SDS011;67498;53.650;10.090;2023-03-01T14:22:57;5.10;;;1.55;;
78224;SDS011;67498;53.650;10.090;2023-03-01T14:25:27;5.80;;;1.70;;
78224;SDS011;67498;53.650;10.090;2023-03-01T14:27:57;7.88;;;1.58;;
78224;SDS011;67498;53.650;10.090;2023-03-01T14:30:24;4.68;;;1.52;;
78224;SDS011;67498;53.650;10.090;2023-03-01T14:32:54;5.03;;;1.13;;
78224;SDS011;67498;53.650;10.090;2023-03-01T14:35:37;4.40;;;1.60;;
78224;SDS011;67498;53.650;10.090;2023-03-01T14:38:03;5.68;;;1.27;;
78224;SDS011;67498;53.650;10.090;2023-03-01T14:42:55;4.00;;;0.82;;
78224;SDS011;67498;53.650;10.090;2023-03-01T14:45:25;4.63;;;1.48;;
78224;SDS011;67498;53.650;10.090;2023-03-01T14:47:51;4.82;;;1.80;;
78224;SDS011;67498;53.650;10.090;2023-03-01T14:50:22;7.40;;;1.93;;
78224;SDS011;67498;53.650;10.090;2023-03-01T14:52:48;7.07;;;1.67;;
78224;SDS011;67498;53.650;10.090;2023-03-01T14:55:15;6.10;;;1.90;;
78224;SDS011;67498;53.650;10.090;2023-03-01T14:57:44;6.57;;;2.07;;
78224;SDS011;67498;53.650;10.090;2023-03-01T15:00:22;3.80;;;1.05;;
78224;SDS011;67498;53.650;10.090;2023-03-01T15:02:48;3.55;;;1.20;;
78224;SDS011;67498;53.650;10.090;2023-03-01T15:05:14;5.40;;;1.23;;
78224;SDS011;67498;53.650;10.090;2023-03-01T15:07:41;10.10;;;2.13;;
78224;SDS011;67498;53.650;10.090;2023-03-01T15:10:12;7.85;;;1.92;;
78224;SDS011;67498;53.650;10.090;2023-03-01T15:12:40;3.45;;;0.88;;
78224;SDS011;67498;53.650;10.090;2023-03-01T15:17:48;6.27;;;1.30;;
78224;SDS011;67498;53.650;10.090;2023-03-01T15:20:16;6.45;;;1.67;;
78224;SDS011;67498;53.650;10.090;2023-03-01T15:22:45;3.45;;;1.08;;
78224;SDS011;67498;53.650;10.090;2023-03-01T15:25:20;5.55;;;1.60;;
78224;SDS011;67498;53.650;10.090;2023-03-01T15:27:46;5.05;;;1.30;;
78224;SDS011;67498;53.650;10.090;2023-03-01T15:32:43;4.28;;;0.80;;
78224;SDS011;67498;53.650;10.090;2023-03-01T15:37:53;5.53;;;1.67;;
78224;SDS011;67498;53.650;10.090;2023-03-01T15:42:43;6.73;;;1.40;;
78224;SDS011;67498;53.650;10.090;2023-03-01T15:47:33;4.23;;;1.30;;
78224;SDS011;67498;53.650;10.090;2023-03-01T15:50:00;4.50;;;1.37;;
78224;SDS011;67498;53.650;10.090;2023-03-01T15:52:27;5.63;;;1.95;;
78224;SDS011;67498;53.650;10.090;2023-03-01T15:54:56;5.72;;;1.75;;
78224;SDS011;67498;53.650;10.090;2023-03-01T15:57:21;7.57;;;2.22;;
78224;SDS011;67498;53.650;10.090;2023-03-01T15:59:47;6.60;;;1.55;;
78224;SDS011;67498;53.650;10.090;2023-03-01T16:02:12;7.03;;;3.00;;
78224;SDS011;67498;53.650;10.090;2023-03-01T16:04:38;6.83;;;2.37;;
78224;SDS011;67498;53.650;10.090;2023-03-01T16:07:03;6.88;;;2.15;;
78224;SDS011;67498;53.650;10.090;2023-03-01T16:09:28;7.13;;;2.03;;
78224;SDS011;67498;53.650;10.090;2023-03-01T16:11:54;5.43;;;1.95;;
78224;SDS011;67498;53.650;10.090;2023-03-01T16:14:19;7.90;;;2.67;;
78224;SDS011;67498;53.650;10.090;2023-03-01T16:16:45;5.47;;;1.80;;
78224;SDS011;67498;53.650;10.090;2023-03-01T16:19:10;9.27;;;2.83;;
78224;SDS011;67498;53.650;10.090;2023-03-01T16:21:36;7.07;;;2.63;;
78224;SDS011;67498;53.650;10.090;2023-03-01T16:24:01;9.83;;;2.47;;